Time;durP1;ratioP1;P1;durP2;ratioP2;P2;SDS_P1;SDS_P2;PMS_P1;PMS_P2;Temp;Humidity;BMP_temperature;BMP_pressure;BME280_temperature;BME280_humidity;BME280_pressure;Samples;Min_cycle;Max_cycle;Signal;HPM_P1;HPM_P2
2022/09/19 00:01:24;;;;;;;;;;;11.50;99.90;;;;;;5002810;28;20303;-81
2022/09/19 00:03:58;;;;;;;;;;;11.40;99.90;;;;;;5007527;28;20438;-82
2022/09/19 00:06:26;;;;;;;;;;;11.50;99.90;;;;;;5004877;28;20001;-82
2022/09/19 00:08:52;;;;;;;;;;;11.40;99.90;;;;;;5008565;28;19921;-82
2022/09/19 00:11:19;;;;;;;;;;;11.50;99.90;;;;;;4990224;28;20853;-81
2022/09/19 00:13:47;;;;;;;;;;;11.50;99.90;;;;;;5023765;28;20488;-82
2022/09/19 00:16:16;;;;;;;;;;;11.50;99.90;;;;;;5023804;28;19952;-82
2022/09/19 00:18:42;;;;;;;;;;;11.50;99.90;;;;;;5024116;28;19935;-82
2022/09/19 00:21:08;;;;;;;;;;;11.50;99.90;;;;;;5007101;28;19925;-82
2022/09/19 00:26:20;;;;;;;;;;;11.40;99.90;;;;;;5004732;28;20360;-82
2022/09/19 00:28:46;;;;;;;;;;;11.50;99.90;;;;;;5008496;28;20383;-82
2022/09/19 00:31:19;;;;;;;;;;;11.50;99.90;;;;;;5004871;28;19936;-82
2022/09/19 00:33:46;;;;;;;;;;;11.50;99.90;;;;;;5006239;28;20387;-82
2022/09/19 00:36:12;;;;;;;;;;;11.50;99.90;;;;;;5007477;28;19929;-84
2022/09/19 00:38:38;;;;;;;;;;;11.50;99.90;;;;;;5024646;28;19929;-85
2022/09/19 00:41:03;;;;;;;;;;;11.50;99.90;;;;;;5008534;28;19971;-82
2022/09/19 00:43:43;;;;;;;;;;;11.60;99.90;;;;;;4993686;28;19968;-81
2022/09/19 00:46:09;;;;;;;;;;;11.60;99.90;;;;;;5023022;28;19971;-83
2022/09/19 00:48:35;;;;;;;;;;;11.70;99.90;;;;;;5007524;28;19940;-84
2022/09/19 00:51:04;;;;;;;;;;;11.70;99.90;;;;;;5006769;28;19936;-83
2022/09/19 00:53:31;;;;;;;;;;;11.80;99.90;;;;;;5021029;28;20369;-85
2022/09/19 00:55:57;;;;;;;;;;;11.80;99.90;;;;;;5004021;28;19980;-85
2022/09/19 00:58:28;;;;;;;;;;;11.70;99.90;;;;;;5008529;28;20021;-86
2022/09/19 01:00:55;;;;;;;;;;;11.70;99.90;;;;;;5019871;28;19925;-83
2022/09/19 01:03:24;;;;;;;;;;;11.70;99.90;;;;;;4991193;28;20028;-83
2022/09/19 01:05:55;;;;;;;;;;;11.80;99.90;;;;;;5007582;28;19925;-82
2022/09/19 01:08:21;;;;;;;;;;;11.80;99.90;;;;;;5019198;28;20080;-83
2022/09/19 01:10:48;;;;;;;;;;;11.80;99.90;;;;;;5008455;28;20391;-80
2022/09/19 01:13:37;;;;;;;;;;;11.80;99.90;;;;;;5007185;28;20340;-81
2022/09/19 01:16:08;;;;;;;;;;;11.80;99.90;;;;;;5006086;28;19969;-81
2022/09/19 01:18:47;;;;;;;;;;;11.90;99.90;;;;;;5005534;28;20050;-79
2022/09/19 01:24:17;;;;;;;;;;;12.00;99.90;;;;;;5020039;28;19925;-80
2022/09/19 01:27:02;;;;;;;;;;;12.00;99.90;;;;;;5010028;28;20576;-80
2022/09/19 01:29:32;;;;;;;;;;;12.00;99.90;;;;;;5006836;28;19925;-80
2022/09/19 01:31:59;;;;;;;;;;;12.10;99.90;;;;;;5019175;28;19925;-79
2022/09/19 01:34:32;;;;;;;;;;;12.10;99.90;;;;;;5006133;28;19933;-80
2022/09/19 01:37:06;;;;;;;;;;;12.10;99.90;;;;;;5014075;28;19932;-83
2022/09/19 01:39:34;;;;;;;;;;;12.00;99.90;;;;;;5020901;28;19991;-79
2022/09/19 01:42:01;;;;;;;;;;;12.00;99.90;;;;;;5003678;28;20537;-80
2022/09/19 01:44:28;;;;;;;;;;;12.10;99.90;;;;;;4991576;28;19928;-80
2022/09/19 01:47:06;;;;;;;;;;;12.10;99.90;;;;;;5007698;28;19975;-81
2022/09/19 01:49:31;;;;;;;;;;;12.10;99.90;;;;;;5004894;28;19929;-79
2022/09/19 01:52:16;;;;;;;;;;;12.00;99.90;;;;;;5004197;28;20344;-81
2022/09/19 01:55:06;;;;;;;;;;;12.00;99.90;;;;;;5014964;28;19933;-80
2022/09/19 01:57:31;;;;;;;;;;;12.00;99.90;;;;;;4986790;28;20557;-81
2022/09/19 02:00:18;;;;;;;;;;;12.00;99.90;;;;;;5005086;28;19953;-82
2022/09/19 02:03:03;;;;;;;;;;;12.00;99.90;;;;;;5023205;28;19926;-80
2022/09/19 02:08:51;;;;;;;;;;;11.90;99.90;;;;;;5099496;23;19936;-83
2022/09/19 02:11:18;;;;;;;;;;;11.90;99.90;;;;;;5026066;28;19925;-79
2022/09/19 02:13:54;;;;;;;;;;;11.90;99.90;;;;;;5009779;28;20000;-80
2022/09/19 02:16:30;;;;;;;;;;;11.90;99.90;;;;;;5011274;28;19929;-79
2022/09/19 02:18:58;;;;;;;;;;;12.00;99.90;;;;;;5008782;28;19929;-80
2022/09/19 02:21:30;;;;;;;;;;;12.00;99.90;;;;;;5010446;28;20403;-80
2022/09/19 02:24:05;;;;;;;;;;;12.10;99.90;;;;;;5010370;28;19922;-79
2022/09/19 02:26:32;;;;;;;;;;;12.00;99.90;;;;;;5006963;28;19979;-81
2022/09/19 02:28:59;;;;;;;;;;;12.00;99.90;;;;;;5010208;28;20416;-81
2022/09/19 02:31:27;;;;;;;;;;;11.90;99.90;;;;;;5021178;28;20517;-78
2022/09/19 02:33:58;;;;;;;;;;;11.90;99.90;;;;;;4982514;28;19922;-79
2022/09/19 02:36:32;;;;;;;;;;;11.90;99.90;;;;;;5010365;28;19937;-81
2022/09/19 02:39:07;;;;;;;;;;;11.80;99.90;;;;;;5011119;28;19929;-81
2022/09/19 02:41:36;;;;;;;;;;;11.70;99.90;;;;;;5009958;28;19925;-83
2022/09/19 02:44:21;;;;;;;;;;;11.60;99.90;;;;;;5018289;28;19921;-83
2022/09/19 02:47:02;;;;;;;;;;;11.50;99.90;;;;;;5022555;28;20020;-81
2022/09/19 02:49:31;;;;;;;;;;;11.50;99.90;;;;;;5025432;28;19940;-83
2022/09/19 02:51:59;;;;;;;;;;;11.40;99.90;;;;;;5021888;28;19932;-83
2022/09/19 02:54:31;;;;;;;;;;;11.40;99.90;;;;;;5026520;28;19929;-84
2022/09/19 02:56:59;;;;;;;;;;;11.40;99.90;;;;;;5008824;28;19933;-83
2022/09/19 02:59:28;;;;;;;;;;;11.50;99.90;;;;;;5009703;28;19935;-83
2022/09/19 03:02:00;;;;;;;;;;;11.50;99.90;;;;;;5006501;28;19936;-81
2022/09/19 03:04:32;;;;;;;;;;;11.50;99.90;;;;;;5006254;28;20384;-84
2022/09/19 03:07:12;;;;;;;;;;;11.50;99.90;;;;;;5022170;28;20414;-83
2022/09/19 03:09:41;;;;;;;;;;;11.60;99.90;;;;;;5011547;28;20548;-84
2022/09/19 03:12:18;;;;;;;;;;;11.60;99.90;;;;;;5010199;28;20507;-80
2022/09/19 03:14:45;;;;;;;;;;;11.60;99.90;;;;;;5008699;28;19933;-83
2022/09/19 03:17:14;;;;;;;;;;;11.50;99.90;;;;;;5009665;28;19926;-80
2022/09/19 03:19:41;;;;;;;;;;;11.50;99.90;;;;;;4997064;28;19929;-81
2022/09/19 03:22:07;;;;;;;;;;;11.50;99.90;;;;;;4988032;28;20380;-79
2022/09/19 03:24:35;;;;;;;;;;;11.50;99.90;;;;;;4976711;28;20213;-81
2022/09/19 03:27:01;;;;;;;;;;;11.50;99.90;;;;;;4993199;28;20146;-81
2022/09/19 03:29:27;;;;;;;;;;;11.60;99.90;;;;;;4990259;28;19937;-86
2022/09/19 03:31:53;;;;;;;;;;;11.50;99.90;;;;;;4995053;28;19971;-81
2022/09/19 03:34:20;;;;;;;;;;;11.60;99.90;;;;;;4996694;28;20036;-83
2022/09/19 03:36:45;;;;;;;;;;;11.60;99.90;;;;;;5009682;28;19921;-86
2022/09/19 03:39:11;;;;;;;;;;;11.70;99.90;;;;;;5010342;28;19925;-81
2022/09/19 03:41:38;;;;;;;;;;;11.70;99.90;;;;;;5026444;28;20356;-82
2022/09/19 03:44:04;;;;;;;;;;;11.80;99.90;;;;;;5009634;28;20015;-82
2022/09/19 03:46:31;;;;;;;;;;;11.80;99.90;;;;;;5016419;28;19925;-85
2022/09/19 03:48:57;;;;;;;;;;;11.90;99.90;;;;;;4988654;28;19941;-82
2022/09/19 03:51:24;;;;;;;;;;;11.90;99.90;;;;;;5009059;28;19925;-82
2022/09/19 03:53:50;;;;;;;;;;;11.90;99.90;;;;;;4992648;28;19987;-82
2022/09/19 03:56:16;;;;;;;;;;;11.80;99.90;;;;;;5002749;28;19968;-83
2022/09/19 03:58:42;;;;;;;;;;;11.90;99.90;;;;;;5007975;28;19925;-81
2022/09/19 04:01:09;;;;;;;;;;;11.80;99.90;;;;;;5007797;28;19936;-84
2022/09/19 04:03:36;;;;;;;;;;;11.90;99.90;;;;;;4991187;28;19929;-84
2022/09/19 04:06:03;;;;;;;;;;;11.80;99.90;;;;;;5001868;28;19925;-83
2022/09/19 04:08:28;;;;;;;;;;;11.90;99.90;;;;;;4974578;28;19930;-80
2022/09/19 04:10:54;;;;;;;;;;;11.90;99.90;;;;;;5005723;28;19933;-84
2022/09/19 04:13:21;;;;;;;;;;;11.90;99.90;;;;;;5008451;28;20024;-83
2022/09/19 04:15:48;;;;;;;;;;;11.90;99.90;;;;;;5013147;28;19932;-84
2022/09/19 04:18:14;;;;;;;;;;;11.90;99.90;;;;;;4991277;28;19925;-81
2022/09/19 04:20:40;;;;;;;;;;;12.00;99.90;;;;;;5008161;28;20312;-81
2022/09/19 04:23:07;;;;;;;;;;;12.00;99.90;;;;;;5002097;28;19928;-80
2022/09/19 04:25:35;;;;;;;;;;;12.00;99.90;;;;;;5008848;28;19929;-83
2022/09/19 04:28:03;;;;;;;;;;;12.00;99.90;;;;;;5020717;28;20578;-82
2022/09/19 04:30:35;;;;;;;;;;;11.90;99.90;;;;;;5025134;28;19932;-81
2022/09/19 04:33:05;;;;;;;;;;;11.90;99.90;;;;;;5022985;28;19929;-83
2022/09/19 04:35:35;;;;;;;;;;;11.80;99.90;;;;;;5019736;28;20055;-81
2022/09/19 04:38:06;;;;;;;;;;;11.80;99.90;;;;;;5008016;28;20396;-81
2022/09/19 04:40:39;;;;;;;;;;;11.70;99.90;;;;;;5024436;28;19925;-79
2022/09/19 04:43:06;;;;;;;;;;;11.70;99.90;;;;;;5007889;28;19929;-80
2022/09/19 04:45:31;;;;;;;;;;;11.70;99.90;;;;;;4989218;28;19932;-80
2022/09/19 04:48:02;;;;;;;;;;;11.70;99.90;;;;;;5007239;28;19929;-85
2022/09/19 04:50:52;;;;;;;;;;;11.80;99.90;;;;;;5011101;28;20012;-87
2022/09/19 04:53:19;;;;;;;;;;;11.90;99.90;;;;;;5004389;28;19932;-86
2022/09/19 04:55:48;;;;;;;;;;;11.90;99.90;;;;;;4993060;28;20072;-85
2022/09/19 04:58:15;;;;;;;;;;;11.80;99.90;;;;;;5008299;28;19926;-86
2022/09/19 05:00:42;;;;;;;;;;;11.80;99.90;;;;;;4988092;28;19976;-83
2022/09/19 05:03:12;;;;;;;;;;;11.80;99.90;;;;;;4992226;28;19964;-84
2022/09/19 05:05:44;;;;;;;;;;;11.80;99.90;;;;;;4999561;28;19934;-84
2022/09/19 05:08:15;;;;;;;;;;;11.80;99.90;;;;;;5013632;28;19929;-82
2022/09/19 05:10:42;;;;;;;;;;;11.90;99.90;;;;;;5004522;28;20036;-83
2022/09/19 05:13:08;;;;;;;;;;;11.80;99.90;;;;;;5013350;28;19929;-84
2022/09/19 05:15:35;;;;;;;;;;;11.90;99.90;;;;;;5018292;28;19937;-83
2022/09/19 05:18:01;;;;;;;;;;;11.90;99.90;;;;;;5021523;28;20019;-86
2022/09/19 05:20:27;;;;;;;;;;;11.80;99.90;;;;;;4988288;28;20019;-82
2022/09/19 05:22:56;;;;;;;;;;;11.80;99.90;;;;;;5001473;28;20475;-86
2022/09/19 05:25:22;;;;;;;;;;;11.90;99.90;;;;;;4980472;28;19925;-83
2022/09/19 05:27:48;;;;;;;;;;;11.90;99.90;;;;;;4999879;28;20147;-82
2022/09/19 05:30:14;;;;;;;;;;;11.90;99.90;;;;;;4989704;28;19929;-79
2022/09/19 05:32:44;;;;;;;;;;;12.00;99.90;;;;;;4990890;28;19983;-82
2022/09/19 05:35:11;;;;;;;;;;;12.10;99.90;;;;;;5004408;28;19984;-83
2022/09/19 05:37:42;;;;;;;;;;;12.00;99.90;;;;;;5002967;28;20020;-81
2022/09/19 05:40:10;;;;;;;;;;;12.00;99.90;;;;;;5019607;28;19929;-79
2022/09/19 05:42:43;;;;;;;;;;;12.10;99.90;;;;;;5007962;28;19925;-81
2022/09/19 05:45:10;;;;;;;;;;;12.00;99.90;;;;;;4994315;28;20591;-80
2022/09/19 05:47:37;;;;;;;;;;;12.10;99.90;;;;;;5005658;28;19957;-82
2022/09/19 05:50:03;;;;;;;;;;;12.00;99.90;;;;;;4990485;28;19933;-80
2022/09/19 05:55:13;;;;;;;;;;;12.10;99.90;;;;;;5004101;28;19924;-83
2022/09/19 05:57:40;;;;;;;;;;;12.00;99.90;;;;;;4995342;28;19933;-83
2022/09/19 06:00:06;;;;;;;;;;;12.10;99.90;;;;;;4990155;28;19948;-80
2022/09/19 06:02:33;;;;;;;;;;;12.00;99.90;;;;;;5005126;28;19936;-83
2022/09/19 06:05:01;;;;;;;;;;;12.00;99.90;;;;;;4989580;28;19925;-82
2022/09/19 06:07:28;;;;;;;;;;;12.00;99.90;;;;;;4997277;28;19926;-80
2022/09/19 06:09:55;;;;;;;;;;;12.00;99.90;;;;;;5013917;28;19929;-81
2022/09/19 06:12:22;;;;;;;;;;;12.00;99.90;;;;;;4967433;28;19932;-82
2022/09/19 06:14:48;;;;;;;;;;;12.00;99.90;;;;;;4968603;28;19944;-84
2022/09/19 06:17:16;;;;;;;;;;;12.10;99.90;;;;;;4982950;28;19929;-81
2022/09/19 06:19:42;;;;;;;;;;;12.10;99.90;;;;;;4998897;28;20004;-81
2022/09/19 06:22:07;;;;;;;;;;;12.10;99.90;;;;;;4979647;28;20052;-80
2022/09/19 06:24:33;;;;;;;;;;;12.20;99.90;;;;;;4994838;28;20013;-80
2022/09/19 06:27:00;;;;;;;;;;;11.70;99.90;;;;;;4981106;28;20031;-81
2022/09/19 06:29:28;;;;;;;;;;;12.30;99.90;;;;;;5002529;28;19932;-82
2022/09/19 06:31:54;;;;;;;;;;;12.40;99.90;;;;;;5002631;28;19925;-82
2022/09/19 06:34:25;;;;;;;;;;;12.30;99.90;;;;;;5006442;28;19936;-83
2022/09/19 06:36:54;;;;;;;;;;;12.30;99.90;;;;;;5010296;28;19926;-86
2022/09/19 06:39:32;;;;;;;;;;;12.30;99.90;;;;;;4997306;28;19936;-82
2022/09/19 06:41:58;;;;;;;;;;;12.10;99.90;;;;;;5010295;28;19943;-81
2022/09/19 06:44:24;;;;;;;;;;;12.20;99.90;;;;;;4994128;28;19983;-83
2022/09/19 06:46:50;;;;;;;;;;;11.80;99.90;;;;;;5007394;28;19929;-83
2022/09/19 06:49:16;;;;;;;;;;;12.20;99.90;;;;;;5009363;28;19932;-83
2022/09/19 06:51:42;;;;;;;;;;;11.40;99.90;;;;;;5025919;28;19978;-79
2022/09/19 06:54:08;;;;;;;;;;;12.20;99.90;;;;;;4995619;28;19940;-80
2022/09/19 06:56:34;;;;;;;;;;;12.20;99.90;;;;;;5026540;28;19929;-79
2022/09/19 06:59:00;;;;;;;;;;;12.30;99.90;;;;;;4989309;28;20122;-80
2022/09/19 07:01:26;;;;;;;;;;;12.40;99.90;;;;;;4993259;28;19925;-85
2022/09/19 07:03:52;;;;;;;;;;;12.70;99.90;;;;;;4992744;28;20412;-83
2022/09/19 07:06:17;;;;;;;;;;;12.50;99.90;;;;;;5025423;28;19925;-81
2022/09/19 07:08:46;;;;;;;;;;;12.50;99.90;;;;;;4976970;28;19933;-82
2022/09/19 07:11:13;;;;;;;;;;;12.50;99.90;;;;;;5010641;28;19925;-81
2022/09/19 07:13:43;;;;;;;;;;;12.50;99.90;;;;;;4978758;28;19932;-83
2022/09/19 07:16:09;;;;;;;;;;;12.50;99.90;;;;;;4992061;28;20595;-83
2022/09/19 07:18:36;;;;;;;;;;;12.40;99.90;;;;;;4992745;28;19940;-87
2022/09/19 07:21:03;;;;;;;;;;;12.50;99.90;;;;;;4993872;28;19983;-84
2022/09/19 07:23:29;;;;;;;;;;;12.50;99.90;;;;;;4992454;28;20392;-81
2022/09/19 07:25:55;;;;;;;;;;;12.50;99.90;;;;;;4993102;28;20040;-81
2022/09/19 07:28:21;;;;;;;;;;;12.60;99.90;;;;;;5005150;28;19932;-82
2022/09/19 07:30:48;;;;;;;;;;;12.60;99.90;;;;;;5010230;28;20016;-83
2022/09/19 07:33:15;;;;;;;;;;;12.70;99.90;;;;;;4991377;28;19929;-81
2022/09/19 07:35:41;;;;;;;;;;;12.80;99.90;;;;;;4992209;28;20419;-82
2022/09/19 07:38:17;;;;;;;;;;;12.90;99.90;;;;;;4993649;28;19925;-83
2022/09/19 07:40:43;;;;;;;;;;;12.90;99.90;;;;;;4992302;28;19929;-85
2022/09/19 07:43:29;;;;;;;;;;;12.90;99.90;;;;;;4992955;28;20553;-86
2022/09/19 07:45:54;;;;;;;;;;;13.10;99.90;;;;;;4999772;28;20036;-89
2022/09/19 07:48:20;;;;;;;;;;;13.20;99.90;;;;;;4992882;28;20028;-84
2022/09/19 07:50:50;;;;;;;;;;;13.20;99.90;;;;;;4976159;28;20008;-80
2022/09/19 07:53:17;;;;;;;;;;;13.30;99.90;;;;;;5007994;28;19933;-80
2022/09/19 07:55:43;;;;;;;;;;;13.30;99.90;;;;;;4992736;28;19931;-80
2022/09/19 07:58:10;;;;;;;;;;;13.40;99.90;;;;;;4992130;28;20032;-83
2022/09/19 08:00:38;;;;;;;;;;;13.80;99.90;;;;;;4990873;28;19940;-81
2022/09/19 08:03:11;;;;;;;;;;;14.50;99.90;;;;;;5008226;28;19992;-81
2022/09/19 08:05:39;;;;;;;;;;;14.80;99.90;;;;;;4992522;28;19941;-81
2022/09/19 08:08:05;;;;;;;;;;;14.60;99.90;;;;;;4993054;28;19933;-81
2022/09/19 08:10:32;;;;;;;;;;;14.50;99.90;;;;;;4992959;28;20339;-82
2022/09/19 08:12:58;;;;;;;;;;;14.50;99.90;;;;;;4976906;28;19968;-82
2022/09/19 08:15:24;;;;;;;;;;;14.90;99.90;;;;;;4966792;28;19977;-83
2022/09/19 08:18:09;;;;;;;;;;;15.60;99.90;;;;;;4990184;28;19960;-84
2022/09/19 08:20:37;;;;;;;;;;;16.40;99.90;;;;;;5001243;28;19968;-84
2022/09/19 08:23:05;;;;;;;;;;;17.00;99.90;;;;;;4972789;28;20548;-80
2022/09/19 08:25:33;;;;;;;;;;;;;;;;;;4993027;28;19925;-83
2022/09/19 08:27:59;;;;;;;;;;;16.80;99.90;;;;;;4991632;28;20428;-83
2022/09/19 08:30:27;;;;;;;;;;;16.50;99.90;;;;;;4989591;28;19948;-87
2022/09/19 08:32:52;;;;;;;;;;;16.50;99.90;;;;;;4992466;28;19924;-83
2022/09/19 08:35:19;;;;;;;;;;;16.20;99.90;;;;;;4976232;28;20390;-81
2022/09/19 08:37:45;;;;;;;;;;;16.00;99.90;;;;;;5008429;28;19986;-82
2022/09/19 08:40:18;;;;;;;;;;;15.80;99.90;;;;;;5008299;28;19929;-82
2022/09/19 08:42:44;;;;;;;;;;;15.50;99.90;;;;;;4991601;28;20020;-83
2022/09/19 08:45:13;;;;;;;;;;;15.40;99.90;;;;;;4991623;28;20295;-84
2022/09/19 08:47:40;;;;;;;;;;;15.20;99.90;;;;;;4991857;28;19933;-84
2022/09/19 08:50:19;;;;;;;;;;;14.90;99.90;;;;;;4990693;28;19979;-79
2022/09/19 08:52:47;;;;;;;;;;;14.70;99.90;;;;;;5008433;28;19936;-82
2022/09/19 08:55:21;;;;;;;;;;;14.80;99.90;;;;;;4989626;28;19952;-80
2022/09/19 08:57:54;;;;;;;;;;;15.00;99.90;;;;;;4988830;28;19932;-80
2022/09/19 09:00:21;;;;;;;;;;;15.10;99.90;;;;;;4987698;28;19933;-84
2022/09/19 09:03:01;;;;;;;;;;;15.30;99.90;;;;;;4992467;28;19932;-85
2022/09/19 09:05:46;;;;;;;;;;;15.40;99.90;;;;;;4988933;28;20067;-81
2022/09/19 09:08:15;;;;;;;;;;;15.50;99.90;;;;;;4991533;28;20443;-81
2022/09/19 09:10:50;;;;;;;;;;;15.60;99.90;;;;;;4992447;28;19925;-83
2022/09/19 09:13:25;;;;;;;;;;;15.80;99.90;;;;;;5006345;28;20302;-84
2022/09/19 09:16:17;;;;;;;;;;;15.90;99.90;;;;;;4997499;28;19968;-85
2022/09/19 09:18:57;;;;;;;;;;;16.00;99.90;;;;;;4991378;28;19925;-80
2022/09/19 09:21:35;;;;;;;;;;;15.90;99.90;;;;;;4994979;28;19933;-83
2022/09/19 09:24:04;;;;;;;;;;;15.70;99.90;;;;;;4996523;28;19990;-81
2022/09/19 09:30:16;;;;;;;;;;;15.40;99.90;;;;;;5005146;28;19928;-81
2022/09/19 09:36:10;;;;;;;;;;;15.40;99.90;;;;;;5030389;28;20515;-81
2022/09/19 09:38:45;;;;;;;;;;;15.60;99.90;;;;;;5011441;28;19925;-80
2022/09/19 09:44:13;;;;;;;;;;;15.70;99.90;;;;;;5010953;28;19922;-78
2022/09/19 09:46:53;;;;;;;;;;;15.40;99.90;;;;;;5010837;28;20008;-81
2022/09/19 09:49:22;;;;;;;;;;;15.20;99.90;;;;;;4991657;28;20023;-78
2022/09/19 09:51:57;;;;;;;;;;;14.90;99.90;;;;;;5008193;28;20075;-78
2022/09/19 09:57:20;;;;;;;;;;;;;;;;;;5008446;28;19968;-77
2022/09/19 10:05:36;;;;;;;;;;;14.00;99.90;;;;;;5008959;28;20591;-82
2022/09/19 10:08:15;;;;;;;;;;;14.00;99.90;;;;;;5000008;28;20004;-83
2022/09/19 10:10:42;;;;;;;;;;;14.00;99.90;;;;;;4995079;28;19936;-79
2022/09/19 10:13:17;;;;;;;;;;;14.10;99.90;;;;;;5008416;28;19933;-80
2022/09/19 10:15:43;;;;;;;;;;;14.30;99.90;;;;;;4993852;28;19925;-81
2022/09/19 10:18:13;;;;;;;;;;;14.70;99.90;;;;;;4994915;28;19945;-84
2022/09/19 10:20:45;;;;;;;;;;;15.00;99.90;;;;;;4993715;28;19925;-84
2022/09/19 10:23:19;;;;;;;;;;;15.10;99.90;;;;;;5006671;28;20000;-83
2022/09/19 10:25:48;;;;;;;;;;;15.30;99.90;;;;;;4995965;28;20060;-89
2022/09/19 10:28:24;;;;;;;;;;;15.30;99.90;;;;;;5006853;28;20364;-87
2022/09/19 10:30:55;;;;;;;;;;;15.30;99.90;;;;;;4994795;28;20085;-80
2022/09/19 10:33:28;;;;;;;;;;;15.30;99.90;;;;;;5029873;28;19992;-81
2022/09/19 10:35:58;;;;;;;;;;;15.20;99.90;;;;;;5004119;28;20514;-89
2022/09/19 10:38:26;;;;;;;;;;;15.20;99.90;;;;;;4994601;28;19929;-79
2022/09/19 10:40:59;;;;;;;;;;;15.30;99.90;;;;;;4978209;28;20075;-82
2022/09/19 10:43:32;;;;;;;;;;;15.30;99.90;;;;;;4987064;28;19968;-81
2022/09/19 10:46:06;;;;;;;;;;;15.30;99.90;;;;;;5002288;28;19929;-85
2022/09/19 10:48:32;;;;;;;;;;;15.20;99.90;;;;;;5009099;28;20032;-83
2022/09/19 10:50:59;;;;;;;;;;;14.80;99.90;;;;;;4992909;28;19948;-80
2022/09/19 10:53:30;;;;;;;;;;;14.50;99.90;;;;;;4975868;28;19933;-80
2022/09/19 10:55:59;;;;;;;;;;;14.20;99.90;;;;;;5009601;28;19949;-82
2022/09/19 10:58:27;;;;;;;;;;;14.00;99.90;;;;;;5010113;28;19929;-81
2022/09/19 11:00:55;;;;;;;;;;;14.00;99.90;;;;;;5001093;28;20300;-81
2022/09/19 11:03:23;;;;;;;;;;;14.00;99.90;;;;;;5008921;28;19921;-80
2022/09/19 11:06:03;;;;;;;;;;;14.00;99.90;;;;;;4993515;28;19929;-79
2022/09/19 11:08:30;;;;;;;;;;;14.20;99.90;;;;;;5010110;28;19924;-82
2022/09/19 11:10:56;;;;;;;;;;;14.40;99.90;;;;;;4978276;28;20451;-83
2022/09/19 11:13:25;;;;;;;;;;;14.90;99.90;;;;;;4994016;28;20336;-80
2022/09/19 11:15:51;;;;;;;;;;;14.90;99.90;;;;;;4992765;28;20301;-79
2022/09/19 11:18:37;;;;;;;;;;;15.20;99.90;;;;;;4992572;28;19925;-84
2022/09/19 11:21:08;;;;;;;;;;;15.30;99.90;;;;;;4963905;28;19948;-81
2022/09/19 11:23:40;;;;;;;;;;;15.40;99.90;;;;;;4989990;28;20251;-84
2022/09/19 11:26:18;;;;;;;;;;;15.40;99.90;;;;;;5009094;28;20347;-82
2022/09/19 11:28:47;;;;;;;;;;;15.60;99.90;;;;;;4993064;28;19931;-82
2022/09/19 11:31:22;;;;;;;;;;;15.70;99.90;;;;;;5011960;28;20117;-83
2022/09/19 11:33:55;;;;;;;;;;;15.80;99.90;;;;;;4991842;28;19979;-80
2022/09/19 11:36:30;;;;;;;;;;;15.90;99.90;;;;;;4991395;28;19925;-80
2022/09/19 11:39:11;;;;;;;;;;;16.00;99.90;;;;;;5009020;28;20083;-80
2022/09/19 11:41:36;;;;;;;;;;;16.00;99.90;;;;;;4986126;28;19996;-83
2022/09/19 11:44:08;;;;;;;;;;;16.00;99.90;;;;;;4992463;28;19984;-87
2022/09/19 11:46:40;;;;;;;;;;;16.00;99.90;;;;;;4986192;28;19991;-82
2022/09/19 11:49:07;;;;;;;;;;;16.10;99.90;;;;;;5018574;28;20318;-79
2022/09/19 11:51:40;;;;;;;;;;;16.30;99.90;;;;;;5007813;28;19936;-81
2022/09/19 11:54:09;;;;;;;;;;;16.30;99.90;;;;;;5008143;28;20024;-83
2022/09/19 11:56:44;;;;;;;;;;;16.10;99.90;;;;;;4992500;28;19936;-80
2022/09/19 11:59:18;;;;;;;;;;;16.00;99.90;;;;;;4988555;28;20356;-83
2022/09/19 12:01:53;;;;;;;;;;;16.10;99.90;;;;;;4988272;28;20016;-83
2022/09/19 12:04:23;;;;;;;;;;;16.10;99.90;;;;;;5008280;28;20007;-84
2022/09/19 12:06:55;;;;;;;;;;;16.10;99.90;;;;;;4986364;28;19930;-82
2022/09/19 12:09:26;;;;;;;;;;;16.20;99.90;;;;;;4991816;28;19936;-78
2022/09/19 12:11:55;;;;;;;;;;;16.10;99.90;;;;;;4984957;28;19979;-89
2022/09/19 12:14:26;;;;;;;;;;;16.20;99.90;;;;;;4994123;28;19925;-80
2022/09/19 12:17:02;;;;;;;;;;;16.10;99.90;;;;;;5008441;28;20205;-87
2022/09/19 12:19:34;;;;;;;;;;;16.00;99.90;;;;;;4986315;28;20447;-81
2022/09/19 12:22:06;;;;;;;;;;;15.70;99.90;;;;;;4982464;28;20069;-81
2022/09/19 12:24:53;;;;;;;;;;;15.90;99.90;;;;;;4989016;28;19931;-87
2022/09/19 12:27:27;;;;;;;;;;;15.90;99.90;;;;;;5002437;28;20296;-84
2022/09/19 12:29:59;;;;;;;;;;;16.10;99.90;;;;;;4981658;28;20104;-79
2022/09/19 12:32:48;;;;;;;;;;;16.10;99.90;;;;;;5006539;28;20294;-84
2022/09/19 12:35:20;;;;;;;;;;;16.20;99.90;;;;;;4906184;29;20089;-82
2022/09/19 12:38:06;;;;;;;;;;;16.30;99.90;;;;;;4991587;28;19925;-85
2022/09/19 12:40:50;;;;;;;;;;;16.10;99.90;;;;;;4990254;28;20517;-80
2022/09/19 12:43:36;;;;;;;;;;;16.40;99.90;;;;;;4988286;28;19926;-83
2022/09/19 12:46:09;;;;;;;;;;;16.30;99.90;;;;;;4985443;28;19929;-81
2022/09/19 12:48:38;;;;;;;;;;;16.20;99.90;;;;;;5001607;28;19929;-81
2022/09/19 12:51:06;;;;;;;;;;;16.20;99.90;;;;;;4983719;28;19983;-77
2022/09/19 12:53:58;;;;;;;;;;;16.20;99.90;;;;;;4999513;28;19925;-83
2022/09/19 12:56:40;;;;;;;;;;;16.20;99.90;;;;;;4999015;28;20461;-80
2022/09/19 12:59:23;;;;;;;;;;;16.20;99.90;;;;;;4982822;28;19980;-79
2022/09/19 13:01:49;;;;;;;;;;;16.20;99.90;;;;;;4998205;28;19941;-79
2022/09/19 13:04:30;;;;;;;;;;;16.20;99.90;;;;;;4981976;28;19929;-78
2022/09/19 13:07:31;;;;;;;;;;;16.20;99.90;;;;;;4982860;28;19967;-78
2022/09/19 13:10:00;;;;;;;;;;;15.90;99.90;;;;;;4958350;28;19925;-84
2022/09/19 13:12:46;;;;;;;;;;;15.90;99.90;;;;;;5001202;28;20393;-85
2022/09/19 13:15:20;;;;;;;;;;;15.90;99.90;;;;;;4999263;28;19987;-81
2022/09/19 13:23:35;;;;;;;;;;;15.50;99.90;;;;;;5012734;28;19977;-80
2022/09/19 13:26:16;;;;;;;;;;;15.40;99.90;;;;;;5018038;28;19932;-83
2022/09/19 13:28:51;;;;;;;;;;;15.40;99.90;;;;;;4999924;28;19936;-77
2022/09/19 13:31:18;;;;;;;;;;;15.30;99.90;;;;;;5001347;28;19983;-80
2022/09/19 13:33:47;;;;;;;;;;;15.40;99.90;;;;;;5004693;28;19939;-81
2022/09/19 13:36:14;;;;;;;;;;;15.40;99.90;;;;;;5004286;28;19929;-81
2022/09/19 13:38:43;;;;;;;;;;;15.40;99.90;;;;;;5003634;28;19929;-82
2022/09/19 13:41:29;;;;;;;;;;;15.40;99.90;;;;;;4983216;28;20379;-80
2022/09/19 13:44:14;;;;;;;;;;;15.30;99.90;;;;;;5002464;28;20037;-81
2022/09/19 13:46:53;;;;;;;;;;;15.10;99.90;;;;;;4986657;28;19936;-79
2022/09/19 13:49:38;;;;;;;;;;;14.90;99.90;;;;;;5012822;28;19940;-79
2022/09/19 13:52:08;;;;;;;;;;;14.70;99.90;;;;;;5003118;28;19925;-80
2022/09/19 13:54:44;;;;;;;;;;;14.60;99.90;;;;;;4971336;28;19937;-80
2022/09/19 13:57:16;;;;;;;;;;;14.50;99.90;;;;;;5011923;28;20426;-81
2022/09/19 13:59:43;;;;;;;;;;;14.30;99.90;;;;;;5015680;28;20283;-80
2022/09/19 14:02:15;;;;;;;;;;;14.10;99.90;;;;;;5001848;28;20083;-82
2022/09/19 14:04:53;;;;;;;;;;;13.80;99.90;;;;;;4999587;28;20015;-83
2022/09/19 14:07:25;;;;;;;;;;;13.60;99.90;;;;;;4995972;28;20143;-81
2022/09/19 14:09:55;;;;;;;;;;;13.30;99.90;;;;;;5016178;28;20010;-81
2022/09/19 14:12:45;;;;;;;;;;;13.20;99.90;;;;;;4992265;28;20379;-79
2022/09/19 14:15:41;;;;;;;;;;;13.20;99.90;;;;;;5014766;28;20038;-83
2022/09/19 14:18:10;;;;;;;;;;;13.20;99.90;;;;;;4984425;28;20006;-84
2022/09/19 14:20:47;;;;;;;;;;;13.30;99.90;;;;;;5020375;28;19925;-81
2022/09/19 14:23:14;;;;;;;;;;;13.40;99.90;;;;;;5005976;28;20011;-81
2022/09/19 14:25:40;;;;;;;;;;;13.60;99.90;;;;;;4986106;28;20036;-82
2022/09/19 14:28:25;;;;;;;;;;;13.60;99.90;;;;;;5006710;28;19937;-79
2022/09/19 14:31:11;;;;;;;;;;;13.60;99.90;;;;;;5008040;28;19968;-81
2022/09/19 14:33:55;;;;;;;;;;;13.60;99.90;;;;;;5013764;28;21005;-80
2022/09/19 14:36:27;;;;;;;;;;;13.40;99.90;;;;;;5020868;28;20534;-83
2022/09/19 14:38:58;;;;;;;;;;;13.80;99.90;;;;;;5023000;28;19936;-78
2022/09/19 14:41:43;;;;;;;;;;;13.90;99.90;;;;;;5000509;28;20794;-80
2022/09/19 14:44:31;;;;;;;;;;;14.00;99.90;;;;;;5005779;28;19933;-83
2022/09/19 14:47:23;;;;;;;;;;;14.10;99.90;;;;;;4989259;28;19933;-81
2022/09/19 14:50:02;;;;;;;;;;;14.00;99.90;;;;;;4973748;28;20327;-81
2022/09/19 14:52:29;;;;;;;;;;;13.90;99.90;;;;;;5019693;28;20336;-79
2022/09/19 14:55:09;;;;;;;;;;;13.80;99.90;;;;;;5019433;28;19984;-80
2022/09/19 14:57:44;;;;;;;;;;;13.80;99.90;;;;;;5001756;28;19936;-83
2022/09/19 15:00:37;;;;;;;;;;;13.80;99.90;;;;;;5000273;28;19980;-83
2022/09/19 15:03:11;;;;;;;;;;;13.90;99.90;;;;;;4992373;28;20431;-81
2022/09/19 15:05:38;;;;;;;;;;;14.00;99.90;;;;;;5006202;28;20571;-83
2022/09/19 15:08:33;;;;;;;;;;;14.00;99.90;;;;;;4984018;28;19951;-81
2022/09/19 15:11:04;;;;;;;;;;;14.20;99.90;;;;;;4983273;28;19933;-81
2022/09/19 15:13:31;;;;;;;;;;;14.20;99.90;;;;;;4982197;28;19925;-81
2022/09/19 15:15:59;;;;;;;;;;;14.20;99.90;;;;;;5000754;28;20071;-81
2022/09/19 15:18:28;;;;;;;;;;;14.20;99.90;;;;;;4979328;28;19929;-82